Terminal Aerodrome Forecast
Issued by NWS Wilmington, OH

Current Version | Previous Version | Text Only | Print | Product List | Glossary Off
Versions: 1 2 3 4 5 6 7 8 9 10 11 12 13

945
FTUS41 KILN 220538
TAFCMH
TAF
KCMH 220538Z 2206/2306 04005KT P6SM OVC150
     FM221300 07008KT P6SM SCT250=

USA.gov is the U.S. government's official web portal to all federal, state and local government web resources and services.